Flight Track Log - Related Links

Times and Time Zones

All times are in EDT time to prevent confusion due to time zone crossing. See the PDT4314 flight status page for this flight to view local times or setup timezone preferences in your user account.

Time Position Orientation Groundspeed Altitude Reporting Facility
EDT Latitude Longitude Course Direction KTS MPH feet Rate Location/Type
Thu 06:15:00 PM 41.9924 -75.9090 180° South  Level Estimated
Thu 06:16:00 PM 41.9370 -75.9146 184° South  Level FlightAware Approximate
Thu 06:17:00 PM 41.8830 -75.8964 154° Southeast  Level Estimated
Thu 06:18:00 PM 41.8291 -75.8783 160° South  Level Estimated
Thu 06:19:00 PM 41.7752 -75.8602 159° South  Level Estimated
Thu 06:20:00 PM 41.7203 -75.8482 171° South  Level FlightAware Approximate
Thu 06:21:00 PM 41.6655 -75.8361 171° South  Level FlightAware Approximate
Thu 06:22:00 PM 41.6116 -75.8178 153° Southeast  Level Estimated
Thu 06:23:00 PM 41.5578 -75.7994 161° South  Level Estimated
Thu 06:24:00 PM 41.5045 -75.7781 163° South  Level FlightAware Approximate
Thu 06:25:00 PM 41.4513 -75.7568 163° South  Level FlightAware Approximate
Thu 06:26:00 PM 41.3974 -75.7388 162° South  Level Estimated
Thu 06:27:00 PM 41.3446 -75.7158 162° South  Level FlightAware Approximate
Thu 06:28:00 PM 41.2917 -75.6928 162° South  Level FlightAware Approximate
Thu 06:29:00 PM 41.2389 -75.6699 162° South  Level FlightAware Approximate
Thu 06:30:00 PM 41.1860 -75.6470 162° South  Level FlightAware Approximate
Thu 06:31:00 PM 41.1320 -75.6299 159° South  Level Estimated
Thu 06:32:00 PM 41.0779 -75.6129 163° South  Level Estimated
Thu 06:33:00 PM 41.0253 -75.5891 161° South  Level FlightAware Approximate
Thu 06:34:00 PM 40.9727 -75.5653 161° South  Level FlightAware Approximate
Thu 06:35:00 PM 40.9201 -75.5415 161° South  Level FlightAware Approximate
Thu 06:36:00 PM 40.8675 -75.5178 161° South  Level FlightAware Approximate
Thu 06:37:00 PM 40.8131 -75.5024 190° South  Level Estimated
Thu 06:38:00 PM 40.7575 -75.5020 180° South  Level FlightAware Approximate
Thu 06:39:00 PM 40.7020 -75.5016 180° South  Level FlightAware Approximate
Thu 06:40:00 PM 40.6479 -75.4844 187° South  Level Estimated
Thu 06:41:00 PM 40.5926 -75.4916 186° South  Level FlightAware Approximate
Thu 06:42:00 PM 40.5389 -75.4727 190° South  Level Estimated
Thu 06:43:00 PM 40.4845 -75.4874 192° South  Level FlightAware Approximate
Thu 06:43:53 PM 40.6000 -75.4833 143° Southeast 235 270 5,100  Level Philadelphia TRACON
Thu 06:44:00 PM 40.4300 -75.5019 192° South  Level FlightAware Approximate
Thu 06:45:00 PM 40.3777 -75.4773 180° South  Level Estimated
Thu 06:45:18 PM 40.5167 -75.5000 189° South 213 245 5,000  Level Philadelphia TRACON
Thu 06:46:00 PM 40.3254 -75.4526 143° Southeast  Level Estimated
Thu 06:46:24 PM 40.4667 -75.5167 194° South 205 236 5,000  Level Philadelphia TRACON
Thu 06:47:00 PM 40.2730 -75.4280 143° Southeast  Level Estimated
Thu 06:47:24 PM 40.4167 -75.5000 166° South 210 242 5,000  Level Philadelphia TRACON
Thu 06:48:00 PM 40.2207 -75.4035 143° Southeast  Level Estimated
Thu 06:48:24 PM 40.3667 -75.4500 143° Southeast 213 245 5,000  Level Philadelphia TRACON
Thu 06:49:00 PM 40.1684 -75.3789 143° Southeast  Level Estimated
Thu 06:49:24 PM 40.3167 -75.4000 143° Southeast 213 245 5,000  Level Philadelphia TRACON
Thu 06:50:24 PM 40.2667 -75.3667 153° Southeast 222 255 4,500 -526 Descending Philadelphia TRACON
Thu 06:51:18 PM 40.2167 -75.3333 153° Southeast 228 262 4,000 -278 Descending Philadelphia TRACON
Thu 06:52:12 PM 40.1667 -75.3000 153° Southeast 217 250 4,000  Level Philadelphia TRACON
Thu 06:53:18 PM 40.1000 -75.2667 159° South 208 239 4,000  Level Philadelphia TRACON
Thu 06:54:18 PM 40.0500 -75.2333 153° Southeast 207 238 4,000  Level Philadelphia TRACON
Thu 06:55:12 PM 40.0000 -75.2000 153° Southeast 208 239 4,000  Level Philadelphia TRACON
Thu 06:56:18 PM 39.9500 -75.1667 153° Southeast 208 239 4,000  Level Philadelphia TRACON
Thu 06:57:13 PM 39.9000 -75.1500 166° South 211 243 4,000 -595 Level Philadelphia TRACON
Thu 06:58:19 PM 39.8333 -75.1333 169° South 190 219 2,800 -960 Descending Philadelphia TRACON
Thu 06:59:18 PM 39.8000 -75.1667 218° Southwest 156 180 2,000 -950 Descending Philadelphia TRACON
Thu 07:00:19 PM 39.8333 -75.2167 311° West 168 193 900 -942 Descending Philadelphia TRACON
Thu 07:01:19 PM 39.8667 -75.2333 339° North 130 150 100 -800 Descending Philadelphia TRACON
Thu 07:03:00 PM 39.8722 -75.2409 113° Southeast  Level Estimated

Login

Don't have an account? Register now (free) for customized features, flight alerts, and more!